sensor_id;sensor_type;location;lat;lon;timestamp;P1;durP1;ratioP1;P2;durP2;ratioP2
74512;SDS011;62992;52.052;8.550;2023-02-25T00:01:45;16.05;;;2.50;;
74512;SDS011;62992;52.052;8.550;2023-02-25T00:04:29;9.93;;;2.17;;
74512;SDS011;62992;52.052;8.550;2023-02-25T00:07:14;12.68;;;1.95;;
74512;SDS011;62992;52.052;8.550;2023-02-25T00:09:58;16.50;;;2.63;;
74512;SDS011;62992;52.052;8.550;2023-02-25T00:12:42;13.40;;;2.30;;
74512;SDS011;62992;52.052;8.550;2023-02-25T00:15:26;10.05;;;1.80;;
74512;SDS011;62992;52.052;8.550;2023-02-25T00:18:11;12.63;;;2.17;;
74512;SDS011;62992;52.052;8.550;2023-02-25T00:20:55;11.95;;;2.70;;
74512;SDS011;62992;52.052;8.550;2023-02-25T00:23:40;10.27;;;2.43;;
74512;SDS011;62992;52.052;8.550;2023-02-25T00:26:26;10.70;;;2.90;;
74512;SDS011;62992;52.052;8.550;2023-02-25T00:29:10;12.40;;;2.20;;
74512;SDS011;62992;52.052;8.550;2023-02-25T00:31:54;11.45;;;1.92;;
74512;SDS011;62992;52.052;8.550;2023-02-25T00:34:38;12.70;;;3.45;;
74512;SDS011;62992;52.052;8.550;2023-02-25T00:37:23;16.95;;;3.15;;
74512;SDS011;62992;52.052;8.550;2023-02-25T00:40:07;12.75;;;2.63;;
74512;SDS011;62992;52.052;8.550;2023-02-25T00:42:58;7.45;;;1.20;;
74512;SDS011;62992;52.052;8.550;2023-02-25T00:45:42;10.77;;;1.95;;
74512;SDS011;62992;52.052;8.550;2023-02-25T00:48:26;16.50;;;2.28;;
74512;SDS011;62992;52.052;8.550;2023-02-25T00:51:11;8.60;;;2.88;;
74512;SDS011;62992;52.052;8.550;2023-02-25T00:54:01;13.68;;;2.33;;
74512;SDS011;62992;52.052;8.550;2023-02-25T00:56:44;13.15;;;2.25;;
74512;SDS011;62992;52.052;8.550;2023-02-25T00:59:28;13.07;;;2.30;;
74512;SDS011;62992;52.052;8.550;2023-02-25T01:02:12;11.65;;;1.70;;
74512;SDS011;62992;52.052;8.550;2023-02-25T01:04:56;11.15;;;1.75;;
74512;SDS011;62992;52.052;8.550;2023-02-25T01:07:41;8.32;;;1.70;;
74512;SDS011;62992;52.052;8.550;2023-02-25T01:10:26;11.30;;;2.08;;
74512;SDS011;62992;52.052;8.550;2023-02-25T01:13:10;9.00;;;1.80;;
74512;SDS011;62992;52.052;8.550;2023-02-25T01:15:55;12.30;;;2.22;;
74512;SDS011;62992;52.052;8.550;2023-02-25T01:18:39;11.82;;;2.05;;
74512;SDS011;62992;52.052;8.550;2023-02-25T01:21:27;8.98;;;1.67;;
74512;SDS011;62992;52.052;8.550;2023-02-25T01:24:14;11.05;;;1.75;;
74512;SDS011;62992;52.052;8.550;2023-02-25T01:27:01;11.45;;;1.65;;
74512;SDS011;62992;52.052;8.550;2023-02-25T01:29:46;8.73;;;1.88;;
74512;SDS011;62992;52.052;8.550;2023-02-25T01:32:30;9.80;;;1.88;;
74512;SDS011;62992;52.052;8.550;2023-02-25T01:35:15;18.15;;;2.17;;
74512;SDS011;62992;52.052;8.550;2023-02-25T01:37:59;10.55;;;2.60;;
74512;SDS011;62992;52.052;8.550;2023-02-25T01:40:44;12.95;;;2.30;;
74512;SDS011;62992;52.052;8.550;2023-02-25T01:43:28;10.32;;;2.55;;
74512;SDS011;62992;52.052;8.550;2023-02-25T01:46:12;15.93;;;2.03;;
74512;SDS011;62992;52.052;8.550;2023-02-25T01:48:56;11.27;;;2.58;;
74512;SDS011;62992;52.052;8.550;2023-02-25T01:51:41;11.43;;;2.95;;
74512;SDS011;62992;52.052;8.550;2023-02-25T01:54:28;21.08;;;1.98;;
74512;SDS011;62992;52.052;8.550;2023-02-25T01:57:14;11.07;;;2.30;;
74512;SDS011;62992;52.052;8.550;2023-02-25T02:00:01;11.23;;;1.90;;
74512;SDS011;62992;52.052;8.550;2023-02-25T02:02:58;8.35;;;1.52;;
74512;SDS011;62992;52.052;8.550;2023-02-25T02:05:47;8.55;;;1.92;;
74512;SDS011;62992;52.052;8.550;2023-02-25T02:08:38;11.98;;;2.15;;
74512;SDS011;62992;52.052;8.550;2023-02-25T02:11:24;8.07;;;1.88;;
74512;SDS011;62992;52.052;8.550;2023-02-25T02:14:10;10.25;;;1.95;;
74512;SDS011;62992;52.052;8.550;2023-02-25T02:17:08;8.73;;;1.73;;
74512;SDS011;62992;52.052;8.550;2023-02-25T02:20:24;8.50;;;1.73;;
74512;SDS011;62992;52.052;8.550;2023-02-25T02:23:24;10.95;;;2.03;;
74512;SDS011;62992;52.052;8.550;2023-02-25T02:26:43;15.00;;;3.20;;
74512;SDS011;62992;52.052;8.550;2023-02-25T02:35:40;13.60;;;2.05;;
74512;SDS011;62992;52.052;8.550;2023-02-25T02:38:59;12.93;;;2.50;;
74512;SDS011;62992;52.052;8.550;2023-02-25T02:41:57;8.25;;;2.28;;
74512;SDS011;62992;52.052;8.550;2023-02-25T02:48:00;14.25;;;2.63;;
74512;SDS011;62992;52.052;8.550;2023-02-25T02:50:53;13.60;;;3.20;;
74512;SDS011;62992;52.052;8.550;2023-02-25T02:53:51;11.18;;;2.65;;
74512;SDS011;62992;52.052;8.550;2023-02-25T02:56:38;14.32;;;3.13;;
74512;SDS011;62992;52.052;8.550;2023-02-25T02:59:27;11.93;;;2.40;;
74512;SDS011;62992;52.052;8.550;2023-02-25T03:02:49;7.57;;;2.45;;
74512;SDS011;62992;52.052;8.550;2023-02-25T03:05:32;11.25;;;2.70;;
74512;SDS011;62992;52.052;8.550;2023-02-25T03:08:21;8.25;;;2.15;;
74512;SDS011;62992;52.052;8.550;2023-02-25T03:11:11;11.55;;;2.83;;
74512;SDS011;62992;52.052;8.550;2023-02-25T03:13:57;9.23;;;2.20;;
74512;SDS011;62992;52.052;8.550;2023-02-25T03:16:46;9.23;;;2.58;;
74512;SDS011;62992;52.052;8.550;2023-02-25T03:20:09;12.60;;;2.47;;
74512;SDS011;62992;52.052;8.550;2023-02-25T03:23:01;8.00;;;1.77;;
74512;SDS011;62992;52.052;8.550;2023-02-25T03:25:52;7.88;;;2.25;;
74512;SDS011;62992;52.052;8.550;2023-02-25T03:28:44;9.73;;;2.17;;
74512;SDS011;62992;52.052;8.550;2023-02-25T03:31:31;11.90;;;2.30;;
74512;SDS011;62992;52.052;8.550;2023-02-25T03:34:20;10.35;;;2.25;;
74512;SDS011;62992;52.052;8.550;2023-02-25T03:37:12;7.10;;;1.80;;
74512;SDS011;62992;52.052;8.550;2023-02-25T03:40:12;10.23;;;2.30;;
74512;SDS011;62992;52.052;8.550;2023-02-25T03:43:00;6.45;;;2.00;;
74512;SDS011;62992;52.052;8.550;2023-02-25T03:45:50;11.95;;;2.55;;
74512;SDS011;62992;52.052;8.550;2023-02-25T03:48:35;8.93;;;2.45;;
74512;SDS011;62992;52.052;8.550;2023-02-25T03:51:23;10.23;;;2.25;;
74512;SDS011;62992;52.052;8.550;2023-02-25T03:54:12;8.27;;;2.00;;
74512;SDS011;62992;52.052;8.550;2023-02-25T03:56:59;8.30;;;2.17;;
74512;SDS011;62992;52.052;8.550;2023-02-25T03:59:45;10.82;;;2.50;;
74512;SDS011;62992;52.052;8.550;2023-02-25T04:02:30;7.25;;;2.03;;
74512;SDS011;62992;52.052;8.550;2023-02-25T04:05:16;12.30;;;2.75;;
74512;SDS011;62992;52.052;8.550;2023-02-25T04:08:01;10.50;;;2.47;;
74512;SDS011;62992;52.052;8.550;2023-02-25T04:10:46;10.82;;;2.50;;
74512;SDS011;62992;52.052;8.550;2023-02-25T04:13:30;10.32;;;2.00;;
74512;SDS011;62992;52.052;8.550;2023-02-25T04:16:14;10.70;;;2.10;;
74512;SDS011;62992;52.052;8.550;2023-02-25T04:18:58;6.85;;;2.13;;
74512;SDS011;62992;52.052;8.550;2023-02-25T04:21:42;10.32;;;2.20;;
74512;SDS011;62992;52.052;8.550;2023-02-25T04:24:26;6.55;;;2.20;;
74512;SDS011;62992;52.052;8.550;2023-02-25T04:27:10;6.10;;;1.80;;
74512;SDS011;62992;52.052;8.550;2023-02-25T04:29:57;11.10;;;2.67;;
74512;SDS011;62992;52.052;8.550;2023-02-25T04:32:42;7.50;;;2.45;;
74512;SDS011;62992;52.052;8.550;2023-02-25T04:35:26;4.75;;;2.20;;
74512;SDS011;62992;52.052;8.550;2023-02-25T04:38:10;7.72;;;2.45;;
74512;SDS011;62992;52.052;8.550;2023-02-25T04:40:54;5.68;;;2.15;;
74512;SDS011;62992;52.052;8.550;2023-02-25T04:43:38;12.40;;;2.55;;
74512;SDS011;62992;52.052;8.550;2023-02-25T04:46:23;7.13;;;2.22;;
74512;SDS011;62992;52.052;8.550;2023-02-25T04:49:07;8.30;;;2.65;;
74512;SDS011;62992;52.052;8.550;2023-02-25T04:51:52;6.23;;;2.17;;
74512;SDS011;62992;52.052;8.550;2023-02-25T04:54:37;6.00;;;2.30;;
74512;SDS011;62992;52.052;8.550;2023-02-25T04:57:21;7.35;;;2.70;;
74512;SDS011;62992;52.052;8.550;2023-02-25T05:00:05;7.93;;;2.28;;
74512;SDS011;62992;52.052;8.550;2023-02-25T05:02:52;8.45;;;2.60;;
74512;SDS011;62992;52.052;8.550;2023-02-25T05:05:36;9.10;;;2.28;;
74512;SDS011;62992;52.052;8.550;2023-02-25T05:08:21;8.50;;;2.55;;
74512;SDS011;62992;52.052;8.550;2023-02-25T05:11:06;5.87;;;2.10;;
74512;SDS011;62992;52.052;8.550;2023-02-25T05:13:50;5.78;;;1.88;;
74512;SDS011;62992;52.052;8.550;2023-02-25T05:16:35;8.98;;;2.20;;
74512;SDS011;62992;52.052;8.550;2023-02-25T05:19:22;7.25;;;2.00;;
74512;SDS011;62992;52.052;8.550;2023-02-25T05:22:07;5.43;;;2.15;;
74512;SDS011;62992;52.052;8.550;2023-02-25T05:24:51;5.43;;;1.70;;
74512;SDS011;62992;52.052;8.550;2023-02-25T05:27:35;4.72;;;1.80;;
74512;SDS011;62992;52.052;8.550;2023-02-25T05:30:20;3.25;;;1.50;;
74512;SDS011;62992;52.052;8.550;2023-02-25T05:33:05;7.38;;;1.70;;
74512;SDS011;62992;52.052;8.550;2023-02-25T05:35:49;5.28;;;1.48;;
74512;SDS011;62992;52.052;8.550;2023-02-25T05:38:34;5.35;;;1.50;;
74512;SDS011;62992;52.052;8.550;2023-02-25T05:41:19;3.95;;;1.67;;
74512;SDS011;62992;52.052;8.550;2023-02-25T05:44:04;4.63;;;1.45;;
74512;SDS011;62992;52.052;8.550;2023-02-25T05:46:48;3.40;;;1.42;;
74512;SDS011;62992;52.052;8.550;2023-02-25T05:49:32;5.22;;;2.05;;
74512;SDS011;62992;52.052;8.550;2023-02-25T05:52:16;3.65;;;1.58;;
74512;SDS011;62992;52.052;8.550;2023-02-25T05:55:01;2.53;;;1.70;;
74512;SDS011;62992;52.052;8.550;2023-02-25T05:57:46;4.68;;;1.30;;
74512;SDS011;62992;52.052;8.550;2023-02-25T06:00:30;4.20;;;1.55;;
74512;SDS011;62992;52.052;8.550;2023-02-25T06:03:14;2.33;;;1.40;;
74512;SDS011;62992;52.052;8.550;2023-02-25T06:05:59;4.85;;;1.60;;
74512;SDS011;62992;52.052;8.550;2023-02-25T06:08:43;5.55;;;1.23;;
74512;SDS011;62992;52.052;8.550;2023-02-25T06:11:28;4.30;;;1.35;;
74512;SDS011;62992;52.052;8.550;2023-02-25T06:14:13;6.38;;;1.40;;
74512;SDS011;62992;52.052;8.550;2023-02-25T06:16:58;9.37;;;1.90;;
74512;SDS011;62992;52.052;8.550;2023-02-25T06:19:42;6.20;;;1.33;;
74512;SDS011;62992;52.052;8.550;2023-02-25T06:22:26;7.50;;;1.70;;
74512;SDS011;62992;52.052;8.550;2023-02-25T06:25:10;2.95;;;1.30;;
74512;SDS011;62992;52.052;8.550;2023-02-25T06:27:58;7.60;;;1.80;;
74512;SDS011;62992;52.052;8.550;2023-02-25T06:30:43;6.90;;;1.25;;
74512;SDS011;62992;52.052;8.550;2023-02-25T06:33:30;4.00;;;1.10;;
74512;SDS011;62992;52.052;8.550;2023-02-25T06:36:14;5.20;;;1.75;;
74512;SDS011;62992;52.052;8.550;2023-02-25T06:39:00;7.00;;;1.60;;
74512;SDS011;62992;52.052;8.550;2023-02-25T06:41:44;7.53;;;1.42;;
74512;SDS011;62992;52.052;8.550;2023-02-25T06:44:28;5.68;;;1.30;;
74512;SDS011;62992;52.052;8.550;2023-02-25T06:47:13;3.28;;;1.30;;
74512;SDS011;62992;52.052;8.550;2023-02-25T06:49:57;4.35;;;1.25;;
74512;SDS011;62992;52.052;8.550;2023-02-25T06:52:41;2.17;;;1.10;;
74512;SDS011;62992;52.052;8.550;2023-02-25T06:55:26;3.85;;;1.20;;
74512;SDS011;62992;52.052;8.550;2023-02-25T06:58:10;5.72;;;1.00;;
74512;SDS011;62992;52.052;8.550;2023-02-25T07:00:53;5.00;;;1.10;;
74512;SDS011;62992;52.052;8.550;2023-02-25T07:03:38;2.38;;;0.98;;
74512;SDS011;62992;52.052;8.550;2023-02-25T07:06:22;5.13;;;1.40;;
74512;SDS011;62992;52.052;8.550;2023-02-25T07:09:06;8.48;;;1.27;;
74512;SDS011;62992;52.052;8.550;2023-02-25T07:11:50;4.38;;;1.05;;
74512;SDS011;62992;52.052;8.550;2023-02-25T07:14:34;2.90;;;1.08;;
74512;SDS011;62992;52.052;8.550;2023-02-25T07:17:18;4.22;;;1.40;;
74512;SDS011;62992;52.052;8.550;2023-02-25T07:20:02;7.60;;;1.17;;
74512;SDS011;62992;52.052;8.550;2023-02-25T07:22:47;8.25;;;1.17;;
74512;SDS011;62992;52.052;8.550;2023-02-25T07:25:31;3.20;;;0.93;;
74512;SDS011;62992;52.052;8.550;2023-02-25T07:28:15;2.45;;;1.02;;
74512;SDS011;62992;52.052;8.550;2023-02-25T07:30:59;3.40;;;1.60;;
74512;SDS011;62992;52.052;8.550;2023-02-25T07:33:45;2.30;;;1.02;;
74512;SDS011;62992;52.052;8.550;2023-02-25T07:36:29;4.60;;;1.15;;
74512;SDS011;62992;52.052;8.550;2023-02-25T07:39:15;5.85;;;0.90;;
74512;SDS011;62992;52.052;8.550;2023-02-25T07:42:00;5.20;;;1.00;;
74512;SDS011;62992;52.052;8.550;2023-02-25T07:44:44;5.35;;;0.80;;
74512;SDS011;62992;52.052;8.550;2023-02-25T07:47:28;5.40;;;0.68;;
74512;SDS011;62992;52.052;8.550;2023-02-25T07:50:13;3.03;;;0.80;;
74512;SDS011;62992;52.052;8.550;2023-02-25T07:52:56;6.47;;;1.13;;
74512;SDS011;62992;52.052;8.550;2023-02-25T07:55:41;5.25;;;0.95;;
74512;SDS011;62992;52.052;8.550;2023-02-25T08:01:15;3.80;;;0.70;;
74512;SDS011;62992;52.052;8.550;2023-02-25T08:04:05;6.30;;;0.65;;
74512;SDS011;62992;52.052;8.550;2023-02-25T08:06:51;2.75;;;0.60;;
74512;SDS011;62992;52.052;8.550;2023-02-25T08:09:36;4.37;;;1.00;;
74512;SDS011;62992;52.052;8.550;2023-02-25T08:12:21;2.13;;;0.70;;
74512;SDS011;62992;52.052;8.550;2023-02-25T08:15:05;5.80;;;1.17;;
74512;SDS011;62992;52.052;8.550;2023-02-25T08:17:50;3.58;;;0.88;;
74512;SDS011;62992;52.052;8.550;2023-02-25T08:20:35;3.47;;;0.50;;
74512;SDS011;62992;52.052;8.550;2023-02-25T08:23:20;2.67;;;1.00;;
74512;SDS011;62992;52.052;8.550;2023-02-25T08:26:04;2.40;;;1.00;;
74512;SDS011;62992;52.052;8.550;2023-02-25T08:28:49;4.07;;;0.60;;
74512;SDS011;62992;52.052;8.550;2023-02-25T08:31:34;2.22;;;0.50;;
74512;SDS011;62992;52.052;8.550;2023-02-25T08:34:18;7.03;;;0.68;;
74512;SDS011;62992;52.052;8.550;2023-02-25T08:37:02;4.13;;;1.02;;
74512;SDS011;62992;52.052;8.550;2023-02-25T08:39:46;9.15;;;0.90;;
74512;SDS011;62992;52.052;8.550;2023-02-25T08:42:30;5.15;;;0.90;;
74512;SDS011;62992;52.052;8.550;2023-02-25T08:45:15;3.45;;;0.70;;
74512;SDS011;62992;52.052;8.550;2023-02-25T08:47:59;1.98;;;0.65;;
74512;SDS011;62992;52.052;8.550;2023-02-25T08:50:43;3.22;;;0.40;;
74512;SDS011;62992;52.052;8.550;2023-02-25T08:53:27;4.97;;;0.88;;
74512;SDS011;62992;52.052;8.550;2023-02-25T08:56:12;5.95;;;1.48;;
74512;SDS011;62992;52.052;8.550;2023-02-25T08:58:57;5.53;;;0.80;;
74512;SDS011;62992;52.052;8.550;2023-02-25T09:01:41;2.95;;;0.57;;
74512;SDS011;62992;52.052;8.550;2023-02-25T09:04:29;2.60;;;0.90;;
74512;SDS011;62992;52.052;8.550;2023-02-25T09:07:13;6.70;;;1.17;;
74512;SDS011;62992;52.052;8.550;2023-02-25T09:09:59;6.53;;;0.55;;
74512;SDS011;62992;52.052;8.550;2023-02-25T09:12:43;4.65;;;0.52;;
74512;SDS011;62992;52.052;8.550;2023-02-25T09:15:27;3.13;;;0.50;;
74512;SDS011;62992;52.052;8.550;2023-02-25T09:18:13;4.55;;;1.15;;
74512;SDS011;62992;52.052;8.550;2023-02-25T09:20:57;3.33;;;0.60;;
74512;SDS011;62992;52.052;8.550;2023-02-25T09:23:41;2.78;;;0.73;;
74512;SDS011;62992;52.052;8.550;2023-02-25T09:26:26;4.35;;;0.60;;
74512;SDS011;62992;52.052;8.550;2023-02-25T09:29:10;4.18;;;0.75;;
74512;SDS011;62992;52.052;8.550;2023-02-25T09:31:54;5.55;;;0.77;;
74512;SDS011;62992;52.052;8.550;2023-02-25T09:34:38;4.15;;;0.63;;
74512;SDS011;62992;52.052;8.550;2023-02-25T09:37:22;3.08;;;0.70;;
74512;SDS011;62992;52.052;8.550;2023-02-25T09:40:08;4.18;;;0.63;;
74512;SDS011;62992;52.052;8.550;2023-02-25T09:46:14;6.43;;;1.20;;
74512;SDS011;62992;52.052;8.550;2023-02-25T09:49:05;3.42;;;0.70;;
74512;SDS011;62992;52.052;8.550;2023-02-25T09:55:22;6.33;;;0.83;;
74512;SDS011;62992;52.052;8.550;2023-02-25T09:58:14;3.92;;;1.13;;
74512;SDS011;62992;52.052;8.550;2023-02-25T10:03:58;5.40;;;0.88;;
74512;SDS011;62992;52.052;8.550;2023-02-25T10:07:08;4.78;;;0.98;;
74512;SDS011;62992;52.052;8.550;2023-02-25T10:13:01;6.13;;;0.50;;
74512;SDS011;62992;52.052;8.550;2023-02-25T10:19:14;2.83;;;1.08;;
74512;SDS011;62992;52.052;8.550;2023-02-25T10:25:09;6.47;;;0.88;;
74512;SDS011;62992;52.052;8.550;2023-02-25T10:28:02;1.88;;;0.57;;
74512;SDS011;62992;52.052;8.550;2023-02-25T10:31:12;3.60;;;0.50;;
74512;SDS011;62992;52.052;8.550;2023-02-25T10:33:56;3.63;;;0.43;;
74512;SDS011;62992;52.052;8.550;2023-02-25T10:36:45;5.07;;;0.63;;
74512;SDS011;62992;52.052;8.550;2023-02-25T10:39:35;2.53;;;0.40;;
74512;SDS011;62992;52.052;8.550;2023-02-25T10:42:20;3.95;;;0.70;;
74512;SDS011;62992;52.052;8.550;2023-02-25T10:45:09;2.55;;;0.32;;
74512;SDS011;62992;52.052;8.550;2023-02-25T10:51:14;2.25;;;0.40;;
74512;SDS011;62992;52.052;8.550;2023-02-25T10:54:03;2.80;;;0.20;;
74512;SDS011;62992;52.052;8.550;2023-02-25T10:56:55;2.03;;;0.32;;
74512;SDS011;62992;52.052;8.550;2023-02-25T10:59:44;6.32;;;0.40;;
74512;SDS011;62992;52.052;8.550;2023-02-25T11:02:29;3.15;;;0.50;;
74512;SDS011;62992;52.052;8.550;2023-02-25T11:05:34;2.38;;;0.90;;
74512;SDS011;62992;52.052;8.550;2023-02-25T11:08:26;5.45;;;1.00;;
74512;SDS011;62992;52.052;8.550;2023-02-25T11:14:02;5.25;;;0.52;;
74512;SDS011;62992;52.052;8.550;2023-02-25T11:16:47;2.92;;;0.40;;
74512;SDS011;62992;52.052;8.550;2023-02-25T11:19:34;3.60;;;0.70;;
74512;SDS011;62992;52.052;8.550;2023-02-25T11:22:22;3.95;;;0.45;;
74512;SDS011;62992;52.052;8.550;2023-02-25T11:25:15;1.85;;;0.32;;
74512;SDS011;62992;52.052;8.550;2023-02-25T11:28:02;2.67;;;0.43;;
74512;SDS011;62992;52.052;8.550;2023-02-25T11:30:50;3.08;;;0.68;;
74512;SDS011;62992;52.052;8.550;2023-02-25T11:33:36;2.33;;;0.40;;
74512;SDS011;62992;52.052;8.550;2023-02-25T11:36:23;1.80;;;0.17;;
74512;SDS011;62992;52.052;8.550;2023-02-25T11:39:14;3.50;;;0.60;;
74512;SDS011;62992;52.052;8.550;2023-02-25T11:42:16;2.05;;;0.50;;
74512;SDS011;62992;52.052;8.550;2023-02-25T11:45:15;0.85;;;0.20;;
74512;SDS011;62992;52.052;8.550;2023-02-25T11:47:59;2.38;;;0.68;;
74512;SDS011;62992;52.052;8.550;2023-02-25T11:50:50;5.05;;;0.80;;
74512;SDS011;62992;52.052;8.550;2023-02-25T12:04:08;1.42;;;0.30;;
74512;SDS011;62992;52.052;8.550;2023-02-25T12:13:59;1.92;;;0.28;;
74512;SDS011;62992;52.052;8.550;2023-02-25T12:26:31;6.80;;;0.50;;
74512;SDS011;62992;52.052;8.550;2023-02-25T12:29:32;2.97;;;0.40;;
74512;SDS011;62992;52.052;8.550;2023-02-25T12:35:42;1.23;;;0.38;;
74512;SDS011;62992;52.052;8.550;2023-02-25T12:44:54;3.40;;;0.40;;
74512;SDS011;62992;52.052;8.550;2023-02-25T12:56:58;0.88;;;0.30;;
74512;SDS011;62992;52.052;8.550;2023-02-25T13:09:55;0.70;;;0.20;;
74512;SDS011;62992;52.052;8.550;2023-02-25T13:16:15;1.58;;;0.30;;
74512;SDS011;62992;52.052;8.550;2023-02-25T13:35:08;2.00;;;0.60;;
74512;SDS011;62992;52.052;8.550;2023-02-25T13:38:13;4.38;;;0.57;;
74512;SDS011;62992;52.052;8.550;2023-02-25T13:56:31;2.00;;;0.73;;
74512;SDS011;62992;52.052;8.550;2023-02-25T14:02:39;3.03;;;1.08;;
74512;SDS011;62992;52.052;8.550;2023-02-25T14:05:26;3.00;;;0.65;;
74512;SDS011;62992;52.052;8.550;2023-02-25T14:15:14;2.42;;;0.70;;
74512;SDS011;62992;52.052;8.550;2023-02-25T14:18:26;1.65;;;0.47;;
74512;SDS011;62992;52.052;8.550;2023-02-25T14:24:52;1.83;;;1.08;;
74512;SDS011;62992;52.052;8.550;2023-02-25T14:27:53;1.70;;;0.85;;
74512;SDS011;62992;52.052;8.550;2023-02-25T14:34:08;1.45;;;0.65;;
74512;SDS011;62992;52.052;8.550;2023-02-25T14:43:28;0.57;;;0.50;;
74512;SDS011;62992;52.052;8.550;2023-02-25T14:46:23;4.00;;;0.63;;
74512;SDS011;62992;52.052;8.550;2023-02-25T14:49:24;3.35;;;0.60;;
74512;SDS011;62992;52.052;8.550;2023-02-25T14:58:46;0.68;;;0.40;;
74512;SDS011;62992;52.052;8.550;2023-02-25T15:08:28;2.25;;;0.98;;
74512;SDS011;62992;52.052;8.550;2023-02-25T15:11:37;1.10;;;0.70;;
74512;SDS011;62992;52.052;8.550;2023-02-25T15:20:45;0.88;;;0.55;;
74512;SDS011;62992;52.052;8.550;2023-02-25T15:23:48;2.45;;;0.98;;
74512;SDS011;62992;52.052;8.550;2023-02-25T15:26:41;1.05;;;0.75;;
74512;SDS011;62992;52.052;8.550;2023-02-25T15:32:22;1.83;;;0.73;;
74512;SDS011;62992;52.052;8.550;2023-02-25T15:35:19;0.95;;;0.65;;
74512;SDS011;62992;52.052;8.550;2023-02-25T15:38:10;4.18;;;1.15;;
74512;SDS011;62992;52.052;8.550;2023-02-25T15:41:00;3.78;;;0.70;;
74512;SDS011;62992;52.052;8.550;2023-02-25T15:43:44;3.08;;;1.05;;
74512;SDS011;62992;52.052;8.550;2023-02-25T15:55:40;4.13;;;0.70;;
74512;SDS011;62992;52.052;8.550;2023-02-25T16:07:35;2.28;;;0.70;;
74512;SDS011;62992;52.052;8.550;2023-02-25T16:10:34;4.95;;;0.70;;
74512;SDS011;62992;52.052;8.550;2023-02-25T16:13:32;1.92;;;0.50;;
74512;SDS011;62992;52.052;8.550;2023-02-25T16:16:17;1.63;;;0.90;;
74512;SDS011;62992;52.052;8.550;2023-02-25T16:19:04;1.90;;;0.55;;
74512;SDS011;62992;52.052;8.550;2023-02-25T16:21:59;4.60;;;0.65;;
74512;SDS011;62992;52.052;8.550;2023-02-25T16:24:48;3.15;;;0.75;;
74512;SDS011;62992;52.052;8.550;2023-02-25T16:27:41;4.00;;;0.88;;
74512;SDS011;62992;52.052;8.550;2023-02-25T16:30:35;3.63;;;0.98;;
74512;SDS011;62992;52.052;8.550;2023-02-25T16:36:43;2.00;;;0.80;;
74512;SDS011;62992;52.052;8.550;2023-02-25T16:39:34;3.13;;;0.88;;
74512;SDS011;62992;52.052;8.550;2023-02-25T16:42:19;6.22;;;0.85;;
74512;SDS011;62992;52.052;8.550;2023-02-25T16:45:04;1.10;;;0.70;;
74512;SDS011;62992;52.052;8.550;2023-02-25T16:48:00;4.60;;;0.80;;
74512;SDS011;62992;52.052;8.550;2023-02-25T16:50:49;6.38;;;0.93;;
74512;SDS011;62992;52.052;8.550;2023-02-25T16:53:33;2.72;;;0.68;;
74512;SDS011;62992;52.052;8.550;2023-02-25T16:56:23;1.98;;;0.57;;
74512;SDS011;62992;52.052;8.550;2023-02-25T17:01:57;2.25;;;1.00;;
74512;SDS011;62992;52.052;8.550;2023-02-25T17:04:47;2.60;;;0.98;;
74512;SDS011;62992;52.052;8.550;2023-02-25T17:07:33;2.40;;;0.73;;
74512;SDS011;62992;52.052;8.550;2023-02-25T17:10:22;2.07;;;0.63;;
74512;SDS011;62992;52.052;8.550;2023-02-25T17:13:11;2.70;;;1.08;;
74512;SDS011;62992;52.052;8.550;2023-02-25T17:16:00;4.85;;;1.63;;
74512;SDS011;62992;52.052;8.550;2023-02-25T17:18:47;3.67;;;0.90;;
74512;SDS011;62992;52.052;8.550;2023-02-25T17:21:36;2.00;;;0.85;;
74512;SDS011;62992;52.052;8.550;2023-02-25T17:24:28;3.10;;;1.17;;
74512;SDS011;62992;52.052;8.550;2023-02-25T17:27:15;4.00;;;1.10;;
74512;SDS011;62992;52.052;8.550;2023-02-25T17:29:59;6.05;;;1.10;;
74512;SDS011;62992;52.052;8.550;2023-02-25T17:32:43;7.28;;;1.50;;
74512;SDS011;62992;52.052;8.550;2023-02-25T17:35:41;11.88;;;3.90;;
74512;SDS011;62992;52.052;8.550;2023-02-25T17:38:25;7.80;;;3.25;;
74512;SDS011;62992;52.052;8.550;2023-02-25T17:43:59;2.83;;;1.60;;
74512;SDS011;62992;52.052;8.550;2023-02-25T17:46:43;5.57;;;2.72;;
74512;SDS011;62992;52.052;8.550;2023-02-25T17:49:33;12.45;;;4.05;;
74512;SDS011;62992;52.052;8.550;2023-02-25T17:55:04;11.85;;;4.22;;
74512;SDS011;62992;52.052;8.550;2023-02-25T17:57:51;7.82;;;3.70;;
74512;SDS011;62992;52.052;8.550;2023-02-25T18:00:39;21.77;;;7.57;;
74512;SDS011;62992;52.052;8.550;2023-02-25T18:03:23;23.27;;;7.38;;
74512;SDS011;62992;52.052;8.550;2023-02-25T18:09:36;32.50;;;8.77;;
74512;SDS011;62992;52.052;8.550;2023-02-25T18:12:23;20.15;;;6.40;;
74512;SDS011;62992;52.052;8.550;2023-02-25T18:15:18;38.55;;;11.10;;
74512;SDS011;62992;52.052;8.550;2023-02-25T18:18:13;32.15;;;9.60;;
74512;SDS011;62992;52.052;8.550;2023-02-25T18:21:03;56.88;;;13.88;;
74512;SDS011;62992;52.052;8.550;2023-02-25T18:23:49;32.38;;;11.45;;
74512;SDS011;62992;52.052;8.550;2023-02-25T18:26:33;7.75;;;4.47;;
74512;SDS011;62992;52.052;8.550;2023-02-25T18:29:18;8.20;;;4.05;;
74512;SDS011;62992;52.052;8.550;2023-02-25T18:32:02;5.75;;;2.95;;
74512;SDS011;62992;52.052;8.550;2023-02-25T18:34:47;4.10;;;2.20;;
74512;SDS011;62992;52.052;8.550;2023-02-25T18:37:31;5.28;;;2.30;;
74512;SDS011;62992;52.052;8.550;2023-02-25T18:40:27;3.43;;;1.77;;
74512;SDS011;62992;52.052;8.550;2023-02-25T18:43:19;5.32;;;1.40;;
74512;SDS011;62992;52.052;8.550;2023-02-25T18:46:05;2.45;;;1.20;;
74512;SDS011;62992;52.052;8.550;2023-02-25T18:48:49;6.95;;;1.65;;
74512;SDS011;62992;52.052;8.550;2023-02-25T18:51:33;3.13;;;1.60;;
74512;SDS011;62992;52.052;8.550;2023-02-25T18:54:18;4.93;;;1.75;;
74512;SDS011;62992;52.052;8.550;2023-02-25T18:57:02;7.70;;;2.00;;
74512;SDS011;62992;52.052;8.550;2023-02-25T18:59:46;5.25;;;1.75;;
74512;SDS011;62992;52.052;8.550;2023-02-25T19:02:31;5.93;;;1.95;;
74512;SDS011;62992;52.052;8.550;2023-02-25T19:05:18;4.88;;;1.77;;
74512;SDS011;62992;52.052;8.550;2023-02-25T19:08:14;4.50;;;1.33;;
74512;SDS011;62992;52.052;8.550;2023-02-25T19:10:59;3.95;;;1.25;;
74512;SDS011;62992;52.052;8.550;2023-02-25T19:13:44;5.25;;;1.65;;
74512;SDS011;62992;52.052;8.550;2023-02-25T19:16:28;3.42;;;1.10;;
74512;SDS011;62992;52.052;8.550;2023-02-25T19:19:13;2.80;;;1.05;;
74512;SDS011;62992;52.052;8.550;2023-02-25T19:21:57;1.13;;;0.70;;
74512;SDS011;62992;52.052;8.550;2023-02-25T19:24:42;4.97;;;1.00;;
74512;SDS011;62992;52.052;8.550;2023-02-25T19:27:30;3.17;;;0.73;;
74512;SDS011;62992;52.052;8.550;2023-02-25T19:30:15;1.20;;;0.55;;
74512;SDS011;62992;52.052;8.550;2023-02-25T19:33:01;1.85;;;0.70;;
74512;SDS011;62992;52.052;8.550;2023-02-25T19:35:46;2.20;;;0.88;;
74512;SDS011;62992;52.052;8.550;2023-02-25T19:38:30;3.38;;;0.93;;
74512;SDS011;62992;52.052;8.550;2023-02-25T19:41:14;1.80;;;1.00;;
74512;SDS011;62992;52.052;8.550;2023-02-25T19:43:59;3.80;;;1.13;;
74512;SDS011;62992;52.052;8.550;2023-02-25T19:46:43;2.05;;;0.93;;
74512;SDS011;62992;52.052;8.550;2023-02-25T19:49:27;1.77;;;1.13;;
74512;SDS011;62992;52.052;8.550;2023-02-25T19:52:11;1.65;;;1.05;;
74512;SDS011;62992;52.052;8.550;2023-02-25T19:54:55;2.40;;;1.15;;
74512;SDS011;62992;52.052;8.550;2023-02-25T19:57:40;3.08;;;1.00;;
74512;SDS011;62992;52.052;8.550;2023-02-25T20:00:25;0.88;;;0.88;;
74512;SDS011;62992;52.052;8.550;2023-02-25T20:03:09;2.17;;;0.70;;
74512;SDS011;62992;52.052;8.550;2023-02-25T20:05:54;4.50;;;1.85;;
74512;SDS011;62992;52.052;8.550;2023-02-25T20:08:38;7.90;;;3.15;;
74512;SDS011;62992;52.052;8.550;2023-02-25T20:11:22;5.20;;;2.35;;
74512;SDS011;62992;52.052;8.550;2023-02-25T20:14:06;2.03;;;1.02;;
74512;SDS011;62992;52.052;8.550;2023-02-25T20:16:50;1.30;;;1.10;;